Time;durP1;ratioP1;P1;durP2;ratioP2;P2;SDS_P1;SDS_P2;PMS_P1;PMS_P2;Temp;Humidity;BMP_temperature;BMP_pressure;BME280_temperature;BME280_humidity;BME280_pressure;Samples;Min_cycle;Max_cycle;Signal;HPM_P1;HPM_P2
2022/10/20 00:01:03;;;;;;;;;;;11.80;99.90;;;;;;5012323;28;19925;-87
2022/10/20 00:03:29;;;;;;;;;;;11.80;99.90;;;;;;5021789;28;20452;-89
2022/10/20 00:06:04;;;;;;;;;;;11.80;99.90;;;;;;5011692;28;20316;-89
2022/10/20 00:08:30;;;;;;;;;;;11.80;99.90;;;;;;5008120;28;19910;-90
2022/10/20 00:10:55;;;;;;;;;;;11.80;99.90;;;;;;5030636;28;20714;-88
2022/10/20 00:13:22;;;;;;;;;;;11.80;99.90;;;;;;5028172;28;20380;-88
2022/10/20 00:15:51;;;;;;;;;;;11.70;99.90;;;;;;5015732;28;19918;-91
2022/10/20 00:18:17;;;;;;;;;;;11.70;99.90;;;;;;5032725;28;19928;-90
2022/10/20 00:20:43;;;;;;;;;;;11.70;99.90;;;;;;5035891;28;19909;-89
2022/10/20 00:23:08;;;;;;;;;;;11.70;99.90;;;;;;5018116;28;19929;-89
2022/10/20 00:25:34;;;;;;;;;;;11.70;99.90;;;;;;5036127;28;19967;-88
2022/10/20 00:27:59;;;;;;;;;;;11.70;99.90;;;;;;5031796;28;19913;-90
2022/10/20 00:30:25;;;;;;;;;;;11.60;99.90;;;;;;5015744;28;19913;-90
2022/10/20 00:32:50;;;;;;;;;;;11.60;99.90;;;;;;5035803;28;19909;-89
2022/10/20 00:35:16;;;;;;;;;;;11.60;99.90;;;;;;5018135;28;20431;-88
2022/10/20 00:37:41;;;;;;;;;;;11.60;99.90;;;;;;5010955;28;19918;-89
2022/10/20 00:40:07;;;;;;;;;;;11.60;99.90;;;;;;5033180;28;19913;-89
2022/10/20 00:42:33;;;;;;;;;;;11.70;99.90;;;;;;5035890;28;20273;-88
2022/10/20 00:44:59;;;;;;;;;;;11.70;99.90;;;;;;5017768;28;20360;-89
2022/10/20 00:47:39;;;;;;;;;;;11.70;99.90;;;;;;5018176;28;19922;-88
2022/10/20 00:50:07;;;;;;;;;;;11.70;99.90;;;;;;5035798;28;19920;-87
2022/10/20 00:52:33;;;;;;;;;;;11.70;99.90;;;;;;5032429;28;19921;-87
2022/10/20 00:54:59;;;;;;;;;;;11.70;99.90;;;;;;5020297;28;19917;-88
2022/10/20 00:57:25;;;;;;;;;;;11.60;99.90;;;;;;5024622;28;19948;-91
2022/10/20 00:59:50;;;;;;;;;;;11.70;99.90;;;;;;5035103;28;19952;-87
2022/10/20 01:02:16;;;;;;;;;;;11.70;99.90;;;;;;5030837;28;19945;-90
2022/10/20 01:04:42;;;;;;;;;;;11.70;99.90;;;;;;5035059;28;19999;-87
2022/10/20 01:07:07;;;;;;;;;;;11.70;99.90;;;;;;5035312;28;19917;-89
2022/10/20 01:09:33;;;;;;;;;;;11.70;99.90;;;;;;5034312;28;19914;-90
2022/10/20 01:12:06;;;;;;;;;;;11.70;99.90;;;;;;5035427;28;19913;-91
2022/10/20 01:14:43;;;;;;;;;;;11.50;99.90;;;;;;5013479;28;19921;-88
2022/10/20 01:17:27;;;;;;;;;;;11.50;99.90;;;;;;5031406;28;19924;-88
2022/10/20 01:20:02;;;;;;;;;;;11.60;99.90;;;;;;5033248;28;19917;-91
2022/10/20 01:22:33;;;;;;;;;;;11.60;99.90;;;;;;5030844;28;19943;-88
2022/10/20 01:25:12;;;;;;;;;;;11.60;99.90;;;;;;5033779;28;19924;-88
2022/10/20 01:27:41;;;;;;;;;;;11.50;99.90;;;;;;5014117;28;20004;-89
2022/10/20 01:30:17;;;;;;;;;;;11.50;99.90;;;;;;5030853;28;19913;-89
2022/10/20 01:32:52;;;;;;;;;;;11.50;99.90;;;;;;5012619;28;19923;-90
2022/10/20 01:35:24;;;;;;;;;;;11.60;99.90;;;;;;5013134;28;19917;-90
2022/10/20 01:37:52;;;;;;;;;;;11.60;99.90;;;;;;5033511;28;19914;-87
2022/10/20 01:40:20;;;;;;;;;;;11.60;99.90;;;;;;5034894;28;19914;-90
2022/10/20 01:42:47;;;;;;;;;;;11.60;99.90;;;;;;5018508;28;19951;-89
2022/10/20 01:45:14;;;;;;;;;;;11.40;99.90;;;;;;5034853;28;19916;-86
2022/10/20 01:47:41;;;;;;;;;;;11.40;99.90;;;;;;5033711;28;19936;-88
2022/10/20 01:50:07;;;;;;;;;;;11.40;99.90;;;;;;5034681;28;20274;-88
2022/10/20 01:52:32;;;;;;;;;;;11.50;99.90;;;;;;5009986;28;20285;-88
2022/10/20 01:54:58;;;;;;;;;;;11.50;99.90;;;;;;5014776;28;19909;-87
2022/10/20 01:57:23;;;;;;;;;;;11.50;99.90;;;;;;5014821;28;20019;-90
2022/10/20 02:00:01;;;;;;;;;;;11.50;99.90;;;;;;5034594;28;20757;-90
2022/10/20 02:02:33;;;;;;;;;;;11.50;99.90;;;;;;5033947;28;19920;-88
2022/10/20 02:05:08;;;;;;;;;;;11.30;99.90;;;;;;5034597;28;19923;-89
2022/10/20 02:07:34;;;;;;;;;;;11.40;99.90;;;;;;5018725;28;19913;-88
2022/10/20 02:10:04;;;;;;;;;;;11.50;99.90;;;;;;5018525;28;19920;-88
2022/10/20 02:12:33;;;;;;;;;;;11.40;99.90;;;;;;5034503;28;20403;-90
2022/10/20 02:14:59;;;;;;;;;;;11.50;99.90;;;;;;5005588;28;19921;-88
2022/10/20 02:17:26;;;;;;;;;;;11.50;99.90;;;;;;4994964;28;19924;-88
2022/10/20 02:19:52;;;;;;;;;;;11.50;99.90;;;;;;5013421;28;19933;-88
2022/10/20 02:22:18;;;;;;;;;;;11.40;99.90;;;;;;5007416;28;19913;-89
2022/10/20 02:24:44;;;;;;;;;;;11.40;99.90;;;;;;5012820;28;19925;-88
2022/10/20 02:27:19;;;;;;;;;;;11.40;99.90;;;;;;5014189;28;20627;-92
2022/10/20 02:29:52;;;;;;;;;;;11.40;99.90;;;;;;5002486;28;20524;-90
2022/10/20 02:32:18;;;;;;;;;;;11.30;99.90;;;;;;4999133;28;19997;-90
2022/10/20 02:34:43;;;;;;;;;;;11.40;99.90;;;;;;5022429;28;19953;-90
2022/10/20 02:37:09;;;;;;;;;;;11.40;99.90;;;;;;5012027;28;19955;-91
2022/10/20 02:39:35;;;;;;;;;;;11.30;99.90;;;;;;5029152;28;19921;-91
2022/10/20 02:42:00;;;;;;;;;;;11.30;99.90;;;;;;5014121;28;19913;-90
2022/10/20 02:44:26;;;;;;;;;;;11.40;99.90;;;;;;5022426;28;19917;-90
2022/10/20 02:46:51;;;;;;;;;;;11.50;99.90;;;;;;5013683;28;19917;-91
2022/10/20 02:49:17;;;;;;;;;;;11.40;99.90;;;;;;5013601;28;20361;-87
2022/10/20 02:51:45;;;;;;;;;;;11.40;99.90;;;;;;5012587;28;19967;-89
2022/10/20 02:54:11;;;;;;;;;;;11.40;99.90;;;;;;5004050;28;19910;-89
2022/10/20 02:56:36;;;;;;;;;;;11.30;99.90;;;;;;5012534;28;19924;-90
2022/10/20 02:59:02;;;;;;;;;;;11.20;99.90;;;;;;5025426;28;19914;-92
2022/10/20 03:01:28;;;;;;;;;;;11.20;99.90;;;;;;5013043;28;20376;-88
2022/10/20 03:03:58;;;;;;;;;;;11.10;99.90;;;;;;5013241;28;19963;-90
2022/10/20 03:06:24;;;;;;;;;;;11.10;99.90;;;;;;5012665;28;19910;-90
2022/10/20 03:08:50;;;;;;;;;;;11.20;99.90;;;;;;5012124;28;19913;-87
2022/10/20 03:11:15;;;;;;;;;;;11.10;99.90;;;;;;5012739;28;19933;-88
2022/10/20 03:13:41;;;;;;;;;;;11.10;99.90;;;;;;5028520;28;19913;-88
2022/10/20 03:16:06;;;;;;;;;;;11.00;99.90;;;;;;5014169;28;19964;-89
2022/10/20 03:18:32;;;;;;;;;;;11.00;99.90;;;;;;5028773;28;20005;-92
2022/10/20 03:20:57;;;;;;;;;;;11.00;99.90;;;;;;4999315;28;19928;-89
2022/10/20 03:23:23;;;;;;;;;;;11.00;99.90;;;;;;4999030;28;19975;-90
2022/10/20 03:25:48;;;;;;;;;;;11.10;99.90;;;;;;4996658;28;19925;-89
2022/10/20 03:28:14;;;;;;;;;;;11.00;99.90;;;;;;5012907;28;20274;-88
2022/10/20 03:30:40;;;;;;;;;;;11.00;99.90;;;;;;5012834;28;20324;-89
2022/10/20 03:33:05;;;;;;;;;;;11.10;99.90;;;;;;5013126;28;20411;-87
2022/10/20 03:35:31;;;;;;;;;;;11.10;99.90;;;;;;5013060;28;19910;-90
2022/10/20 03:37:56;;;;;;;;;;;11.00;99.90;;;;;;5013430;28;19951;-89
2022/10/20 03:40:22;;;;;;;;;;;11.10;99.90;;;;;;4999515;28;20350;-89
2022/10/20 03:42:48;;;;;;;;;;;11.10;99.90;;;;;;5011405;28;19968;-89
2022/10/20 03:45:13;;;;;;;;;;;11.10;99.90;;;;;;5012838;28;19914;-90
2022/10/20 03:47:39;;;;;;;;;;;10.90;99.90;;;;;;5012994;28;19909;-90
2022/10/20 03:50:04;;;;;;;;;;;10.70;99.90;;;;;;5028156;28;19914;-90
2022/10/20 03:52:30;;;;;;;;;;;10.80;99.90;;;;;;5009725;28;20325;-89
2022/10/20 03:54:55;;;;;;;;;;;10.90;99.90;;;;;;5002498;28;19918;-87
2022/10/20 03:57:21;;;;;;;;;;;10.90;99.90;;;;;;5011943;28;19941;-88
2022/10/20 03:59:46;;;;;;;;;;;10.80;99.90;;;;;;5028296;28;20316;-90
2022/10/20 04:02:21;;;;;;;;;;;10.70;99.90;;;;;;5027902;28;19913;-89
2022/10/20 04:04:46;;;;;;;;;;;10.80;99.90;;;;;;5000098;28;19968;-88
2022/10/20 04:07:21;;;;;;;;;;;10.70;99.90;;;;;;5012767;28;19956;-89
2022/10/20 04:09:46;;;;;;;;;;;10.70;99.90;;;;;;5007611;28;19918;-87
2022/10/20 04:12:12;;;;;;;;;;;10.80;99.90;;;;;;5011378;28;20369;-89
2022/10/20 04:14:37;;;;;;;;;;;10.70;99.90;;;;;;5011477;28;20376;-89
2022/10/20 04:17:03;;;;;;;;;;;10.70;99.90;;;;;;5014455;28;19967;-89
2022/10/20 04:19:28;;;;;;;;;;;10.60;99.90;;;;;;5028248;28;19964;-90
2022/10/20 04:21:54;;;;;;;;;;;10.70;99.90;;;;;;5014483;28;19964;-89
2022/10/20 04:24:19;;;;;;;;;;;10.70;99.90;;;;;;5032163;28;19921;-88
2022/10/20 04:26:46;;;;;;;;;;;10.60;99.90;;;;;;5011266;28;19909;-90
2022/10/20 04:29:12;;;;;;;;;;;10.70;99.90;;;;;;5001825;28;19921;-90
2022/10/20 04:31:40;;;;;;;;;;;10.50;99.90;;;;;;5029066;28;19917;-90
2022/10/20 04:34:06;;;;;;;;;;;10.50;99.90;;;;;;5027866;28;20669;-87
2022/10/20 04:36:31;;;;;;;;;;;10.50;99.90;;;;;;5010457;28;19917;-89
2022/10/20 04:38:57;;;;;;;;;;;10.50;99.90;;;;;;5031857;28;19940;-87
2022/10/20 04:41:22;;;;;;;;;;;10.50;99.90;;;;;;5022656;28;19914;-87
2022/10/20 04:43:49;;;;;;;;;;;10.60;99.90;;;;;;5010818;28;19925;-89
2022/10/20 04:46:15;;;;;;;;;;;10.40;99.90;;;;;;5000099;28;20412;-89
2022/10/20 04:48:41;;;;;;;;;;;10.40;99.90;;;;;;5012019;28;19913;-88
2022/10/20 04:51:08;;;;;;;;;;;10.50;99.90;;;;;;5031317;28;19917;-88
2022/10/20 04:53:34;;;;;;;;;;;10.50;99.90;;;;;;5031407;28;19922;-88
2022/10/20 04:56:00;;;;;;;;;;;10.40;99.90;;;;;;5032924;28;19917;-88
2022/10/20 04:58:25;;;;;;;;;;;10.50;99.90;;;;;;5030777;28;20012;-88
2022/10/20 05:00:51;;;;;;;;;;;10.50;99.90;;;;;;5020584;28;19960;-89
2022/10/20 05:03:18;;;;;;;;;;;10.30;99.90;;;;;;5029437;28;19925;-89
2022/10/20 05:05:46;;;;;;;;;;;10.50;99.90;;;;;;5006944;28;20009;-88
2022/10/20 05:08:15;;;;;;;;;;;10.50;99.90;;;;;;5035493;28;19917;-87
2022/10/20 05:10:48;;;;;;;;;;;10.50;99.90;;;;;;5013122;28;19955;-87
2022/10/20 05:13:19;;;;;;;;;;;10.40;99.90;;;;;;5016948;28;19917;-89
2022/10/20 05:15:50;;;;;;;;;;;10.50;99.90;;;;;;5035430;28;20344;-87
2022/10/20 05:18:16;;;;;;;;;;;10.60;99.90;;;;;;5033892;28;19924;-89
2022/10/20 05:20:41;;;;;;;;;;;10.40;99.90;;;;;;5034663;28;19910;-89
2022/10/20 05:23:07;;;;;;;;;;;10.40;99.90;;;;;;5034896;28;20418;-88
2022/10/20 05:25:44;;;;;;;;;;;10.40;99.90;;;;;;5024815;28;19920;-88
2022/10/20 05:28:10;;;;;;;;;;;10.40;99.90;;;;;;5031183;28;19913;-89
2022/10/20 05:30:36;;;;;;;;;;;10.50;99.90;;;;;;5034056;28;19913;-87
2022/10/20 05:33:02;;;;;;;;;;;10.40;99.90;;;;;;5032783;28;19939;-88
2022/10/20 05:35:28;;;;;;;;;;;10.50;99.90;;;;;;5013107;28;20557;-87
2022/10/20 05:37:53;;;;;;;;;;;10.40;99.90;;;;;;5028431;28;20276;-87
2022/10/20 05:40:19;;;;;;;;;;;10.50;99.90;;;;;;5016955;28;19913;-87
2022/10/20 05:42:44;;;;;;;;;;;10.50;99.90;;;;;;5033735;28;19914;-88
2022/10/20 05:45:10;;;;;;;;;;;10.50;99.90;;;;;;5012436;28;20319;-87
2022/10/20 05:47:35;;;;;;;;;;;10.60;99.90;;;;;;5034079;28;19952;-87
2022/10/20 05:50:01;;;;;;;;;;;10.50;99.90;;;;;;5031811;28;19913;-87
2022/10/20 05:52:26;;;;;;;;;;;10.50;99.90;;;;;;5030871;28;19913;-88
2022/10/20 05:54:52;;;;;;;;;;;10.60;99.90;;;;;;5031440;28;20498;-89
2022/10/20 05:57:17;;;;;;;;;;;10.60;99.90;;;;;;5016893;28;19917;-88
2022/10/20 05:59:43;;;;;;;;;;;10.60;99.90;;;;;;5013063;28;19910;-89
2022/10/20 06:02:12;;;;;;;;;;;10.50;99.90;;;;;;5016568;28;20045;-91
2022/10/20 06:04:46;;;;;;;;;;;10.60;99.90;;;;;;5031192;28;19928;-88
2022/10/20 06:07:12;;;;;;;;;;;10.60;99.90;;;;;;5017322;28;19945;-89
2022/10/20 06:09:40;;;;;;;;;;;10.60;99.90;;;;;;5035488;28;20051;-88
2022/10/20 06:12:06;;;;;;;;;;;10.50;99.90;;;;;;5034427;28;19909;-88
2022/10/20 06:14:31;;;;;;;;;;;10.50;99.90;;;;;;5018446;28;19959;-90
2022/10/20 06:16:57;;;;;;;;;;;10.50;99.90;;;;;;5029525;28;20328;-89
2022/10/20 06:19:23;;;;;;;;;;;10.50;99.90;;;;;;5013911;28;20007;-87
2022/10/20 06:21:52;;;;;;;;;;;10.50;99.90;;;;;;5029914;28;19913;-89
2022/10/20 06:24:18;;;;;;;;;;;10.60;99.90;;;;;;5014484;28;19917;-89
2022/10/20 06:26:44;;;;;;;;;;;10.60;99.90;;;;;;5013192;28;19968;-89
2022/10/20 06:29:11;;;;;;;;;;;10.50;99.90;;;;;;5014088;28;19909;-90
2022/10/20 06:31:41;;;;;;;;;;;10.50;99.90;;;;;;5009169;28;20432;-90
2022/10/20 06:34:11;;;;;;;;;;;10.40;99.90;;;;;;4993565;28;19910;-88
2022/10/20 06:36:48;;;;;;;;;;;10.50;99.90;;;;;;4997120;28;19910;-88
2022/10/20 06:39:16;;;;;;;;;;;10.60;99.90;;;;;;5009560;28;20017;-89
2022/10/20 06:41:42;;;;;;;;;;;10.60;99.90;;;;;;5009262;28;19909;-88
2022/10/20 06:44:07;;;;;;;;;;;10.60;99.90;;;;;;5029183;28;19955;-88
2022/10/20 06:46:34;;;;;;;;;;;10.60;99.90;;;;;;5014030;28;19913;-91
2022/10/20 06:49:04;;;;;;;;;;;10.50;99.90;;;;;;5009349;28;19992;-88
2022/10/20 06:51:29;;;;;;;;;;;10.60;99.90;;;;;;4995489;28;20651;-89
2022/10/20 06:53:55;;;;;;;;;;;10.50;99.90;;;;;;5002933;28;19914;-90
2022/10/20 06:56:22;;;;;;;;;;;10.60;99.90;;;;;;5028938;28;20013;-88
2022/10/20 06:58:48;;;;;;;;;;;10.70;99.90;;;;;;5013153;28;19914;-89
2022/10/20 07:01:18;;;;;;;;;;;10.80;99.90;;;;;;5013941;28;19914;-89
2022/10/20 07:03:45;;;;;;;;;;;10.80;99.90;;;;;;5014004;28;19918;-89
2022/10/20 07:06:18;;;;;;;;;;;10.80;99.90;;;;;;5014723;28;20361;-90
2022/10/20 07:08:44;;;;;;;;;;;10.90;99.90;;;;;;5029071;28;20007;-88
2022/10/20 07:11:11;;;;;;;;;;;11.00;99.90;;;;;;5013750;28;20000;-88
2022/10/20 07:13:37;;;;;;;;;;;11.00;99.90;;;;;;5012238;28;20017;-87
2022/10/20 07:16:03;;;;;;;;;;;11.00;99.90;;;;;;5005826;28;19926;-87
2022/10/20 07:18:29;;;;;;;;;;;11.10;99.90;;;;;;5016837;28;19971;-89
2022/10/20 07:20:55;;;;;;;;;;;11.10;99.90;;;;;;5015524;28;19913;-89
2022/10/20 07:23:21;;;;;;;;;;;11.00;99.90;;;;;;5025483;28;20364;-90
2022/10/20 07:25:46;;;;;;;;;;;11.00;99.90;;;;;;5031777;28;19913;-87
2022/10/20 07:28:12;;;;;;;;;;;11.10;99.90;;;;;;5029779;28;19917;-89
2022/10/20 07:30:38;;;;;;;;;;;11.10;99.90;;;;;;5017561;28;19960;-89
2022/10/20 07:33:04;;;;;;;;;;;11.20;99.90;;;;;;4995786;28;19918;-89
2022/10/20 07:35:30;;;;;;;;;;;11.10;99.90;;;;;;5023281;28;19909;-89
2022/10/20 07:37:55;;;;;;;;;;;11.00;99.90;;;;;;5032848;28;20345;-90
2022/10/20 07:40:21;;;;;;;;;;;11.00;99.90;;;;;;5031924;28;19917;-90
2022/10/20 07:42:46;;;;;;;;;;;10.90;99.90;;;;;;5015295;28;19917;-91
2022/10/20 07:45:12;;;;;;;;;;;11.00;99.90;;;;;;5032861;28;20684;-89
2022/10/20 07:47:37;;;;;;;;;;;11.20;99.90;;;;;;5015481;28;20130;-91
2022/10/20 07:50:03;;;;;;;;;;;11.40;99.90;;;;;;5015340;28;19913;-89
2022/10/20 07:52:30;;;;;;;;;;;11.40;99.90;;;;;;5014741;28;19909;-89
2022/10/20 07:54:56;;;;;;;;;;;11.40;99.90;;;;;;5032746;28;19917;-89
2022/10/20 07:57:21;;;;;;;;;;;11.40;99.90;;;;;;5027418;28;19913;-90
2022/10/20 07:59:47;;;;;;;;;;;11.40;99.90;;;;;;5015303;28;19917;-89
2022/10/20 08:02:14;;;;;;;;;;;11.40;99.90;;;;;;5005949;28;19921;-90
2022/10/20 08:04:42;;;;;;;;;;;11.50;99.90;;;;;;5008551;28;19928;-90
2022/10/20 08:07:10;;;;;;;;;;;11.50;99.90;;;;;;4999553;28;19917;-89
2022/10/20 08:09:36;;;;;;;;;;;11.60;99.90;;;;;;5019261;28;19929;-89
2022/10/20 08:12:02;;;;;;;;;;;11.60;99.90;;;;;;5014587;28;19917;-89
2022/10/20 08:14:32;;;;;;;;;;;11.50;99.90;;;;;;5014780;28;19913;-88
2022/10/20 08:16:58;;;;;;;;;;;11.60;99.90;;;;;;5014655;28;19921;-90
2022/10/20 08:19:24;;;;;;;;;;;11.60;99.90;;;;;;5014324;28;19917;-91
2022/10/20 08:21:50;;;;;;;;;;;11.80;99.90;;;;;;5032606;28;19916;-88
2022/10/20 08:24:15;;;;;;;;;;;11.80;99.90;;;;;;5014566;28;19998;-89
2022/10/20 08:26:41;;;;;;;;;;;12.00;99.90;;;;;;5007808;28;19914;-89
2022/10/20 08:29:07;;;;;;;;;;;12.20;99.90;;;;;;5030575;28;19920;-87
2022/10/20 08:31:33;;;;;;;;;;;12.20;99.90;;;;;;5034973;28;19920;-89
2022/10/20 08:33:58;;;;;;;;;;;12.20;99.90;;;;;;5035000;28;20316;-87
2022/10/20 08:36:24;;;;;;;;;;;12.40;99.90;;;;;;5036251;28;19916;-89
2022/10/20 08:38:50;;;;;;;;;;;12.40;99.90;;;;;;5018259;28;19912;-87
2022/10/20 08:41:23;;;;;;;;;;;12.50;99.90;;;;;;5003622;28;20424;-87
2022/10/20 08:43:53;;;;;;;;;;;12.60;99.90;;;;;;5016250;28;19918;-89
2022/10/20 08:46:19;;;;;;;;;;;12.50;99.90;;;;;;5035873;28;19917;-88
2022/10/20 08:48:46;;;;;;;;;;;12.50;99.90;;;;;;5014665;28;20007;-90
2022/10/20 08:51:21;;;;;;;;;;;12.60;99.90;;;;;;5029766;28;20704;-90
2022/10/20 08:53:49;;;;;;;;;;;12.70;99.90;;;;;;5035082;28;20008;-89
2022/10/20 08:56:16;;;;;;;;;;;12.70;99.90;;;;;;5014344;28;19910;-89
2022/10/20 08:58:43;;;;;;;;;;;13.00;99.90;;;;;;5018405;28;19913;-90
2022/10/20 09:01:16;;;;;;;;;;;13.20;99.90;;;;;;5034894;28;19925;-89
2022/10/20 09:03:41;;;;;;;;;;;13.10;99.90;;;;;;5004961;28;19917;-88
2022/10/20 09:06:16;;;;;;;;;;;13.30;99.90;;;;;;5021043;28;19966;-90
2022/10/20 09:08:42;;;;;;;;;;;13.30;99.90;;;;;;5026767;28;19963;-90
2022/10/20 09:11:12;;;;;;;;;;;13.30;99.60;;;;;;5033712;28;19910;-89
2022/10/20 09:13:38;;;;;;;;;;;13.50;99.20;;;;;;5035985;28;19913;-89
2022/10/20 09:16:05;;;;;;;;;;;13.60;97.90;;;;;;5034979;28;19932;-89
2022/10/20 09:18:31;;;;;;;;;;;13.70;98.80;;;;;;5017240;28;20276;-88
2022/10/20 09:21:02;;;;;;;;;;;13.90;98.00;;;;;;5034944;28;19920;-88
2022/10/20 09:23:35;;;;;;;;;;;14.10;97.30;;;;;;5035215;28;19917;-87
2022/10/20 09:26:01;;;;;;;;;;;14.20;96.40;;;;;;5017463;28;19909;-86
2022/10/20 09:28:27;;;;;;;;;;;14.20;95.10;;;;;;5035295;28;20281;-88
2022/10/20 09:30:53;;;;;;;;;;;14.20;94.90;;;;;;5035279;28;19948;-86
2022/10/20 09:33:21;;;;;;;;;;;14.30;95.10;;;;;;5033572;28;19956;-87
2022/10/20 09:35:47;;;;;;;;;;;14.40;94.20;;;;;;5032679;28;19910;-87
2022/10/20 09:38:22;;;;;;;;;;;14.30;94.40;;;;;;5028277;28;19942;-87
2022/10/20 09:41:08;;;;;;;;;;;14.20;94.50;;;;;;5016715;28;20547;-86
2022/10/20 09:43:36;;;;;;;;;;;14.30;94.20;;;;;;5016939;28;19920;-86
2022/10/20 09:46:06;;;;;;;;;;;14.30;93.90;;;;;;5034329;28;19914;-86
2022/10/20 09:48:33;;;;;;;;;;;14.70;93.00;;;;;;5025650;28;19913;-87
2022/10/20 09:50:59;;;;;;;;;;;14.60;93.10;;;;;;5016551;28;20292;-87
2022/10/20 09:53:31;;;;;;;;;;;14.70;92.60;;;;;;5034491;28;19920;-86
2022/10/20 09:55:57;;;;;;;;;;;14.80;92.50;;;;;;5034758;28;19909;-87
2022/10/20 09:58:22;;;;;;;;;;;14.70;92.50;;;;;;5016855;28;19913;-86
2022/10/20 10:00:54;;;;;;;;;;;14.40;93.10;;;;;;5012797;28;20297;-87
2022/10/20 10:03:21;;;;;;;;;;;14.30;94.00;;;;;;5022668;28;19914;-86
2022/10/20 10:05:51;;;;;;;;;;;14.30;93.30;;;;;;5018710;28;20304;-86
2022/10/20 10:08:17;;;;;;;;;;;14.20;93.80;;;;;;5027010;28;19913;-86
2022/10/20 10:10:44;;;;;;;;;;;14.40;93.40;;;;;;5032550;28;19924;-87
2022/10/20 10:13:24;;;;;;;;;;;14.80;92.60;;;;;;5016280;28;19924;-87
2022/10/20 10:15:58;;;;;;;;;;;14.60;92.90;;;;;;5034267;28;20436;-87
2022/10/20 10:18:23;;;;;;;;;;;14.70;93.10;;;;;;5029997;28;19917;-86
2022/10/20 10:20:56;;;;;;;;;;;14.50;93.80;;;;;;5034193;28;19913;-87
2022/10/20 10:23:24;;;;;;;;;;;14.90;92.20;;;;;;5033094;28;19917;-88
2022/10/20 10:25:49;;;;;;;;;;;15.10;91.40;;;;;;5034149;28;19924;-87
2022/10/20 10:28:30;;;;;;;;;;;15.30;91.10;;;;;;5016172;28;19913;-87
2022/10/20 10:31:05;;;;;;;;;;;15.40;90.30;;;;;;5033169;28;19913;-87
2022/10/20 10:33:32;;;;;;;;;;;15.30;90.30;;;;;;5016116;28;19920;-87
2022/10/20 10:36:00;;;;;;;;;;;15.00;90.10;;;;;;5033503;28;19921;-87
2022/10/20 10:38:26;;;;;;;;;;;14.80;90.80;;;;;;5033672;28;20317;-86
2022/10/20 10:41:00;;;;;;;;;;;14.50;92.40;;;;;;5033724;28;20372;-86
2022/10/20 10:43:37;;;;;;;;;;;14.60;92.50;;;;;;5033870;28;20357;-87
2022/10/20 10:46:07;;;;;;;;;;;14.70;91.90;;;;;;5015645;28;19913;-87
2022/10/20 10:48:49;;;;;;;;;;;14.80;91.80;;;;;;5031976;28;19909;-88
2022/10/20 10:51:41;;;;;;;;;;;15.10;91.30;;;;;;5033367;28;20051;-86
2022/10/20 10:54:12;;;;;;;;;;;15.30;91.90;;;;;;5020472;28;20019;-87
2022/10/20 10:56:49;;;;;;;;;;;15.20;91.20;;;;;;5033212;28;19987;-87
2022/10/20 10:59:41;;;;;;;;;;;15.10;91.70;;;;;;5008176;28;19917;-87
2022/10/20 11:02:25;;;;;;;;;;;15.10;91.60;;;;;;5029881;28;19913;-87
2022/10/20 11:05:04;;;;;;;;;;;15.10;91.70;;;;;;5039744;28;19917;-87
2022/10/20 11:07:50;;;;;;;;;;;14.70;92.50;;;;;;5012122;28;20012;-86
2022/10/20 11:10:25;;;;;;;;;;;14.50;91.90;;;;;;5014866;28;19916;-87
2022/10/20 11:12:57;;;;;;;;;;;14.60;92.70;;;;;;5033241;28;20016;-86
2022/10/20 11:15:41;;;;;;;;;;;14.90;92.90;;;;;;4995753;28;20008;-87
2022/10/20 11:18:21;;;;;;;;;;;14.70;92.00;;;;;;4995782;28;19918;-87
2022/10/20 11:20:47;;;;;;;;;;;14.50;92.20;;;;;;5013425;28;20298;-87
2022/10/20 11:23:25;;;;;;;;;;;14.60;91.80;;;;;;5027976;28;20012;-86
2022/10/20 11:26:09;;;;;;;;;;;15.00;91.10;;;;;;5013444;28;20333;-87
2022/10/20 11:28:43;;;;;;;;;;;15.30;90.60;;;;;;5023492;28;19917;-87
2022/10/20 11:31:17;;;;;;;;;;;15.90;90.00;;;;;;5014390;28;19995;-86
2022/10/20 11:33:46;;;;;;;;;;;16.10;87.90;;;;;;5032866;28;20304;-86
2022/10/20 11:36:14;;;;;;;;;;;15.90;86.80;;;;;;5030298;28;19955;-86
2022/10/20 11:38:58;;;;;;;;;;;15.60;85.90;;;;;;5007646;28;20329;-86
2022/10/20 11:41:28;;;;;;;;;;;15.50;88.00;;;;;;5029771;28;19909;-86
2022/10/20 11:44:12;;;;;;;;;;;15.70;88.50;;;;;;5014872;28;19921;-86
2022/10/20 11:46:50;;;;;;;;;;;15.90;87.80;;;;;;5032507;28;19909;-86
2022/10/20 11:49:16;;;;;;;;;;;15.80;88.20;;;;;;5032383;28;20356;-86
2022/10/20 11:51:55;;;;;;;;;;;16.20;86.70;;;;;;4996642;28;20334;-86
2022/10/20 11:54:39;;;;;;;;;;;16.00;88.70;;;;;;4995329;28;19913;-87
2022/10/20 11:57:28;;;;;;;;;;;15.90;87.80;;;;;;5022506;28;19920;-87
2022/10/20 11:59:56;;;;;;;;;;;15.70;86.70;;;;;;5012790;28;20449;-86
2022/10/20 12:02:31;;;;;;;;;;;15.80;88.60;;;;;;5020349;28;19936;-86
2022/10/20 12:05:21;;;;;;;;;;;15.70;89.40;;;;;;5029842;28;19921;-86
2022/10/20 12:07:49;;;;;;;;;;;16.10;88.20;;;;;;5000469;28;19913;-85
2022/10/20 12:10:24;;;;;;;;;;;16.50;85.10;;;;;;5028001;28;19917;-85
2022/10/20 12:12:59;;;;;;;;;;;17.00;82.30;;;;;;5033379;28;20002;-85
2022/10/20 12:15:26;;;;;;;;;;;16.90;83.40;;;;;;5035780;28;20472;-85
2022/10/20 12:17:53;;;;;;;;;;;17.40;81.90;;;;;;5028944;28;20380;-85
2022/10/20 12:20:21;;;;;;;;;;;17.20;79.00;;;;;;5017801;28;19956;-85
2022/10/20 12:22:50;;;;;;;;;;;16.70;83.50;;;;;;5035945;28;19916;-85
2022/10/20 12:25:19;;;;;;;;;;;17.30;81.60;;;;;;5010722;28;19925;-84
2022/10/20 12:27:44;;;;;;;;;;;17.60;82.20;;;;;;5014075;28;20560;-85
2022/10/20 12:30:29;;;;;;;;;;;17.70;80.40;;;;;;5017828;28;19960;-84
2022/10/20 12:32:54;;;;;;;;;;;17.50;78.90;;;;;;5014033;28;19917;-83
2022/10/20 12:35:23;;;;;;;;;;;17.60;79.50;;;;;;5017491;28;19920;-84
2022/10/20 12:37:56;;;;;;;;;;;17.20;79.80;;;;;;5017889;28;20665;-84
2022/10/20 12:40:27;;;;;;;;;;;16.80;82.10;;;;;;5018805;28;19913;-86
2022/10/20 12:42:54;;;;;;;;;;;16.20;83.70;;;;;;5017748;28;20033;-89
2022/10/20 12:45:19;;;;;;;;;;;16.00;84.50;;;;;;5017599;28;19921;-86
2022/10/20 12:47:55;;;;;;;;;;;16.40;84.30;;;;;;5035403;28;20047;-86
2022/10/20 12:50:35;;;;;;;;;;;16.50;84.60;;;;;;5027846;28;19952;-86
2022/10/20 12:53:10;;;;;;;;;;;16.50;84.20;;;;;;5029578;28;19925;-86
2022/10/20 12:55:36;;;;;;;;;;;16.40;85.70;;;;;;5035629;28;19923;-87
2022/10/20 12:58:09;;;;;;;;;;;16.10;85.50;;;;;;5017592;28;19963;-87
2022/10/20 13:00:35;;;;;;;;;;;16.10;88.00;;;;;;5026828;28;19925;-87
2022/10/20 13:03:01;;;;;;;;;;;16.10;86.60;;;;;;5017070;28;19913;-86
2022/10/20 13:05:37;;;;;;;;;;;15.70;88.30;;;;;;5035176;28;20296;-87
2022/10/20 13:08:15;;;;;;;;;;;15.90;88.30;;;;;;5035382;28;19920;-87
2022/10/20 13:10:41;;;;;;;;;;;16.20;88.10;;;;;;5033782;28;19940;-87
2022/10/20 13:13:06;;;;;;;;;;;16.20;86.10;;;;;;5017603;28;19913;-87
2022/10/20 13:15:37;;;;;;;;;;;16.30;85.80;;;;;;5016752;28;19913;-87
2022/10/20 13:18:12;;;;;;;;;;;16.60;85.00;;;;;;5000906;28;20296;-87
2022/10/20 13:20:44;;;;;;;;;;;16.60;83.80;;;;;;5027383;28;19920;-88
2022/10/20 13:23:11;;;;;;;;;;;16.70;84.40;;;;;;5028359;28;20288;-88
2022/10/20 13:25:54;;;;;;;;;;;16.70;84.00;;;;;;5034992;28;19914;-88
2022/10/20 13:28:21;;;;;;;;;;;16.50;84.80;;;;;;5016012;28;19917;-88
2022/10/20 13:30:50;;;;;;;;;;;16.50;85.80;;;;;;5027276;28;19917;-87
2022/10/20 13:33:19;;;;;;;;;;;16.50;85.70;;;;;;5001295;28;20647;-87
2022/10/20 13:35:48;;;;;;;;;;;16.30;86.20;;;;;;5027590;28;19909;-87
2022/10/20 13:38:16;;;;;;;;;;;16.40;86.00;;;;;;5018510;28;19920;-87
2022/10/20 13:41:04;;;;;;;;;;;16.20;86.60;;;;;;5025492;28;19995;-88
2022/10/20 13:43:41;;;;;;;;;;;16.20;86.70;;;;;;5034661;28;19914;-88
2022/10/20 13:46:06;;;;;;;;;;;16.40;86.30;;;;;;5030701;28;20008;-87
2022/10/20 13:48:44;;;;;;;;;;;16.40;86.90;;;;;;5016871;28;19971;-88
2022/10/20 13:51:22;;;;;;;;;;;16.40;87.00;;;;;;5032520;28;19920;-88
2022/10/20 13:53:49;;;;;;;;;;;16.40;87.10;;;;;;5027833;28;19909;-87
2022/10/20 13:56:14;;;;;;;;;;;16.50;87.50;;;;;;5000072;28;20697;-88
2022/10/20 13:58:40;;;;;;;;;;;16.90;86.80;;;;;;5013357;28;20007;-87
2022/10/20 14:01:18;;;;;;;;;;;16.90;85.20;;;;;;4995424;28;19913;-87
2022/10/20 14:03:44;;;;;;;;;;;16.90;84.90;;;;;;5003571;28;19925;-88
2022/10/20 14:06:33;;;;;;;;;;;16.60;86.50;;;;;;5030227;28;19913;-87
2022/10/20 14:09:07;;;;;;;;;;;16.60;84.30;;;;;;5010534;28;19921;-87
2022/10/20 14:11:33;;;;;;;;;;;16.70;85.60;;;;;;5037568;28;19921;-88
2022/10/20 14:14:00;;;;;;;;;;;16.80;83.90;;;;;;5032996;28;19917;-87
2022/10/20 14:16:26;;;;;;;;;;;16.60;86.00;;;;;;5018164;28;19941;-86
2022/10/20 14:18:58;;;;;;;;;;;16.60;85.80;;;;;;5012058;28;19926;-86
2022/10/20 14:21:27;;;;;;;;;;;16.50;86.70;;;;;;5006665;28;20283;-87
2022/10/20 14:23:55;;;;;;;;;;;15.80;89.30;;;;;;5032857;28;19927;-86
2022/10/20 14:26:21;;;;;;;;;;;15.80;90.30;;;;;;5016181;28;19952;-87